sensor_id;sensor_type;location;lat;lon;timestamp;P1;durP1;ratioP1;P2;durP2;ratioP2
1414;SDS011;702;49.466;11.086;2024-03-25T00:00:49;10.33;;;5.30;;
1414;SDS011;702;49.466;11.086;2024-03-25T00:03:15;4.77;;;4.07;;
1414;SDS011;702;49.466;11.086;2024-03-25T00:05:43;4.90;;;4.27;;
1414;SDS011;702;49.466;11.086;2024-03-25T00:08:09;6.27;;;4.83;;
1414;SDS011;702;49.466;11.086;2024-03-25T00:10:37;5.70;;;4.50;;
1414;SDS011;702;49.466;11.086;2024-03-25T00:13:03;6.43;;;4.60;;
1414;SDS011;702;49.466;11.086;2024-03-25T00:15:30;7.03;;;4.73;;
1414;SDS011;702;49.466;11.086;2024-03-25T00:17:58;6.10;;;5.13;;
1414;SDS011;702;49.466;11.086;2024-03-25T00:20:26;5.00;;;4.47;;
1414;SDS011;702;49.466;11.086;2024-03-25T00:22:52;4.27;;;3.60;;
1414;SDS011;702;49.466;11.086;2024-03-25T00:25:20;5.33;;;4.83;;
1414;SDS011;702;49.466;11.086;2024-03-25T00:27:47;5.50;;;4.20;;
1414;SDS011;702;49.466;11.086;2024-03-25T00:30:15;4.73;;;4.10;;
1414;SDS011;702;49.466;11.086;2024-03-25T00:32:42;6.67;;;4.77;;
1414;SDS011;702;49.466;11.086;2024-03-25T00:35:11;7.10;;;4.53;;
1414;SDS011;702;49.466;11.086;2024-03-25T00:37:38;7.30;;;5.10;;
1414;SDS011;702;49.466;11.086;2024-03-25T00:40:06;6.30;;;5.17;;
1414;SDS011;702;49.466;11.086;2024-03-25T00:42:34;5.20;;;4.00;;
1414;SDS011;702;49.466;11.086;2024-03-25T00:45:02;5.73;;;4.20;;
1414;SDS011;702;49.466;11.086;2024-03-25T00:47:30;6.30;;;4.53;;
1414;SDS011;702;49.466;11.086;2024-03-25T00:49:58;5.20;;;4.00;;
1414;SDS011;702;49.466;11.086;2024-03-25T00:52:26;5.10;;;4.60;;
1414;SDS011;702;49.466;11.086;2024-03-25T00:54:53;4.80;;;4.30;;
1414;SDS011;702;49.466;11.086;2024-03-25T00:57:20;6.57;;;5.13;;
1414;SDS011;702;49.466;11.086;2024-03-25T00:59:47;6.67;;;4.70;;
1414;SDS011;702;49.466;11.086;2024-03-25T01:02:14;6.43;;;4.57;;
1414;SDS011;702;49.466;11.086;2024-03-25T01:04:42;5.27;;;4.77;;
1414;SDS011;702;49.466;11.086;2024-03-25T01:07:09;6.43;;;4.73;;
1414;SDS011;702;49.466;11.086;2024-03-25T01:09:38;6.37;;;4.40;;
1414;SDS011;702;49.466;11.086;2024-03-25T01:12:04;6.47;;;4.93;;
1414;SDS011;702;49.466;11.086;2024-03-25T01:14:32;7.33;;;4.63;;
1414;SDS011;702;49.466;11.086;2024-03-25T01:16:58;6.37;;;4.33;;
1414;SDS011;702;49.466;11.086;2024-03-25T01:19:25;7.00;;;4.47;;
1414;SDS011;702;49.466;11.086;2024-03-25T01:21:52;5.13;;;4.50;;
1414;SDS011;702;49.466;11.086;2024-03-25T01:24:19;8.23;;;5.27;;
1414;SDS011;702;49.466;11.086;2024-03-25T01:26:48;7.87;;;4.87;;
1414;SDS011;702;49.466;11.086;2024-03-25T01:29:16;7.90;;;5.00;;
1414;SDS011;702;49.466;11.086;2024-03-25T01:31:44;4.60;;;4.10;;
1414;SDS011;702;49.466;11.086;2024-03-25T01:34:12;8.17;;;4.77;;
1414;SDS011;702;49.466;11.086;2024-03-25T01:36:38;6.53;;;3.80;;
1414;SDS011;702;49.466;11.086;2024-03-25T01:39:06;5.13;;;4.53;;
1414;SDS011;702;49.466;11.086;2024-03-25T01:41:33;6.33;;;4.40;;
1414;SDS011;702;49.466;11.086;2024-03-25T01:44:02;6.10;;;4.33;;
1414;SDS011;702;49.466;11.086;2024-03-25T01:46:29;5.83;;;4.50;;
1414;SDS011;702;49.466;11.086;2024-03-25T01:48:56;4.57;;;3.93;;
1414;SDS011;702;49.466;11.086;2024-03-25T01:51:23;5.07;;;4.57;;
1414;SDS011;702;49.466;11.086;2024-03-25T01:53:52;5.30;;;4.00;;
1414;SDS011;702;49.466;11.086;2024-03-25T01:56:20;9.33;;;4.93;;
1414;SDS011;702;49.466;11.086;2024-03-25T01:58:50;6.20;;;4.13;;
1414;SDS011;702;49.466;11.086;2024-03-25T02:01:19;5.03;;;4.20;;
1414;SDS011;702;49.466;11.086;2024-03-25T02:03:47;5.00;;;4.03;;
1414;SDS011;702;49.466;11.086;2024-03-25T02:06:15;4.17;;;3.77;;
1414;SDS011;702;49.466;11.086;2024-03-25T02:08:44;5.83;;;4.70;;
1414;SDS011;702;49.466;11.086;2024-03-25T02:11:10;5.27;;;4.33;;
1414;SDS011;702;49.466;11.086;2024-03-25T02:13:39;6.27;;;4.80;;
1414;SDS011;702;49.466;11.086;2024-03-25T02:16:07;6.43;;;4.47;;
1414;SDS011;702;49.466;11.086;2024-03-25T02:18:38;7.23;;;4.43;;
1414;SDS011;702;49.466;11.086;2024-03-25T02:21:11;5.63;;;4.33;;
1414;SDS011;702;49.466;11.086;2024-03-25T02:23:38;7.40;;;4.67;;
1414;SDS011;702;49.466;11.086;2024-03-25T02:26:09;6.90;;;4.47;;
1414;SDS011;702;49.466;11.086;2024-03-25T02:28:37;6.10;;;4.20;;
1414;SDS011;702;49.466;11.086;2024-03-25T02:31:03;5.97;;;3.70;;
1414;SDS011;702;49.466;11.086;2024-03-25T02:33:30;8.73;;;3.93;;
1414;SDS011;702;49.466;11.086;2024-03-25T02:35:57;9.33;;;3.80;;
1414;SDS011;702;49.466;11.086;2024-03-25T02:38:24;5.63;;;4.20;;
1414;SDS011;702;49.466;11.086;2024-03-25T02:40:51;4.20;;;3.60;;
1414;SDS011;702;49.466;11.086;2024-03-25T02:43:20;5.73;;;4.30;;
1414;SDS011;702;49.466;11.086;2024-03-25T02:45:47;7.70;;;4.40;;
1414;SDS011;702;49.466;11.086;2024-03-25T02:48:15;7.83;;;4.90;;
1414;SDS011;702;49.466;11.086;2024-03-25T02:50:41;5.10;;;4.47;;
1414;SDS011;702;49.466;11.086;2024-03-25T02:53:08;5.10;;;4.47;;
1414;SDS011;702;49.466;11.086;2024-03-25T02:55:36;4.57;;;4.13;;
1414;SDS011;702;49.466;11.086;2024-03-25T02:58:04;7.50;;;4.93;;
1414;SDS011;702;49.466;11.086;2024-03-25T03:00:31;6.23;;;4.63;;
1414;SDS011;702;49.466;11.086;2024-03-25T03:02:58;5.53;;;5.00;;
1414;SDS011;702;49.466;11.086;2024-03-25T03:05:25;11.97;;;4.53;;
1414;SDS011;702;49.466;11.086;2024-03-25T03:07:52;9.10;;;4.97;;
1414;SDS011;702;49.466;11.086;2024-03-25T03:10:20;5.87;;;4.07;;
1414;SDS011;702;49.466;11.086;2024-03-25T03:12:47;7.23;;;4.73;;
1414;SDS011;702;49.466;11.086;2024-03-25T03:15:15;6.87;;;4.10;;
1414;SDS011;702;49.466;11.086;2024-03-25T03:17:44;6.00;;;5.10;;
1414;SDS011;702;49.466;11.086;2024-03-25T03:20:10;5.20;;;3.90;;
1414;SDS011;702;49.466;11.086;2024-03-25T03:22:38;5.73;;;4.90;;
1414;SDS011;702;49.466;11.086;2024-03-25T03:25:05;5.07;;;4.30;;
1414;SDS011;702;49.466;11.086;2024-03-25T03:27:33;6.87;;;5.10;;
1414;SDS011;702;49.466;11.086;2024-03-25T03:29:59;7.33;;;5.50;;
1414;SDS011;702;49.466;11.086;2024-03-25T03:32:26;5.40;;;4.90;;
1414;SDS011;702;49.466;11.086;2024-03-25T03:34:54;6.17;;;5.57;;
1414;SDS011;702;49.466;11.086;2024-03-25T03:37:21;6.50;;;4.80;;
1414;SDS011;702;49.466;11.086;2024-03-25T03:39:48;7.87;;;5.37;;
1414;SDS011;702;49.466;11.086;2024-03-25T03:42:15;7.70;;;5.73;;
1414;SDS011;702;49.466;11.086;2024-03-25T03:44:41;6.93;;;5.20;;
1414;SDS011;702;49.466;11.086;2024-03-25T03:47:09;7.07;;;5.93;;
1414;SDS011;702;49.466;11.086;2024-03-25T03:49:35;8.23;;;6.07;;
1414;SDS011;702;49.466;11.086;2024-03-25T03:52:04;11.27;;;6.73;;
1414;SDS011;702;49.466;11.086;2024-03-25T03:54:31;8.43;;;6.10;;
1414;SDS011;702;49.466;11.086;2024-03-25T03:56:58;9.93;;;6.90;;
1414;SDS011;702;49.466;11.086;2024-03-25T03:59:26;8.20;;;6.50;;
1414;SDS011;702;49.466;11.086;2024-03-25T04:01:53;8.20;;;6.10;;
1414;SDS011;702;49.466;11.086;2024-03-25T04:04:19;7.50;;;6.80;;
1414;SDS011;702;49.466;11.086;2024-03-25T04:06:48;7.57;;;6.60;;
1414;SDS011;702;49.466;11.086;2024-03-25T04:09:15;9.57;;;6.23;;
1414;SDS011;702;49.466;11.086;2024-03-25T04:11:43;11.60;;;7.03;;
1414;SDS011;702;49.466;11.086;2024-03-25T04:14:10;10.00;;;6.13;;
1414;SDS011;702;49.466;11.086;2024-03-25T04:16:37;8.50;;;6.13;;
1414;SDS011;702;49.466;11.086;2024-03-25T04:19:04;10.60;;;8.83;;
1414;SDS011;702;49.466;11.086;2024-03-25T04:21:31;14.20;;;9.67;;
1414;SDS011;702;49.466;11.086;2024-03-25T04:23:57;7.23;;;6.40;;
1414;SDS011;702;49.466;11.086;2024-03-25T04:26:26;9.40;;;6.77;;
1414;SDS011;702;49.466;11.086;2024-03-25T04:28:52;8.30;;;6.80;;
1414;SDS011;702;49.466;11.086;2024-03-25T04:31:20;8.93;;;7.13;;
1414;SDS011;702;49.466;11.086;2024-03-25T04:33:47;11.53;;;7.00;;
1414;SDS011;702;49.466;11.086;2024-03-25T04:36:16;8.67;;;6.80;;
1414;SDS011;702;49.466;11.086;2024-03-25T04:38:42;10.70;;;7.83;;
1414;SDS011;702;49.466;11.086;2024-03-25T04:41:08;10.30;;;6.93;;
1414;SDS011;702;49.466;11.086;2024-03-25T04:43:36;8.50;;;7.13;;
1414;SDS011;702;49.466;11.086;2024-03-25T04:46:03;13.60;;;7.00;;
1414;SDS011;702;49.466;11.086;2024-03-25T04:48:29;7.57;;;6.87;;
1414;SDS011;702;49.466;11.086;2024-03-25T04:50:56;12.93;;;7.40;;
1414;SDS011;702;49.466;11.086;2024-03-25T04:53:22;8.27;;;7.47;;
1414;SDS011;702;49.466;11.086;2024-03-25T04:55:48;7.73;;;6.83;;
1414;SDS011;702;49.466;11.086;2024-03-25T04:58:15;9.90;;;7.30;;
1414;SDS011;702;49.466;11.086;2024-03-25T05:00:42;10.77;;;7.70;;
1414;SDS011;702;49.466;11.086;2024-03-25T05:03:08;8.80;;;7.87;;
1414;SDS011;702;49.466;11.086;2024-03-25T05:05:35;8.27;;;7.30;;
1414;SDS011;702;49.466;11.086;2024-03-25T05:08:01;9.60;;;6.50;;
1414;SDS011;702;49.466;11.086;2024-03-25T05:10:28;8.47;;;7.67;;
1414;SDS011;702;49.466;11.086;2024-03-25T05:12:54;8.37;;;7.57;;
1414;SDS011;702;49.466;11.086;2024-03-25T05:15:20;15.00;;;7.77;;
1414;SDS011;702;49.466;11.086;2024-03-25T05:17:51;7.90;;;6.97;;
1414;SDS011;702;49.466;11.086;2024-03-25T05:20:17;7.83;;;6.90;;
1414;SDS011;702;49.466;11.086;2024-03-25T05:22:44;8.40;;;7.10;;
1414;SDS011;702;49.466;11.086;2024-03-25T05:25:10;8.47;;;6.90;;
1414;SDS011;702;49.466;11.086;2024-03-25T05:27:37;8.93;;;6.63;;
1414;SDS011;702;49.466;11.086;2024-03-25T05:30:03;8.83;;;7.07;;
1414;SDS011;702;49.466;11.086;2024-03-25T05:32:30;8.50;;;6.90;;
1414;SDS011;702;49.466;11.086;2024-03-25T05:34:58;19.83;;;7.17;;
1414;SDS011;702;49.466;11.086;2024-03-25T05:37:24;10.87;;;6.80;;
1414;SDS011;702;49.466;11.086;2024-03-25T05:39:51;10.50;;;7.53;;
1414;SDS011;702;49.466;11.086;2024-03-25T05:42:17;9.27;;;6.70;;
1414;SDS011;702;49.466;11.086;2024-03-25T05:44:44;8.30;;;7.23;;
1414;SDS011;702;49.466;11.086;2024-03-25T05:47:11;10.90;;;6.50;;
1414;SDS011;702;49.466;11.086;2024-03-25T05:49:38;7.27;;;5.87;;
1414;SDS011;702;49.466;11.086;2024-03-25T05:52:06;8.80;;;6.53;;
1414;SDS011;702;49.466;11.086;2024-03-25T05:54:32;9.20;;;7.57;;
1414;SDS011;702;49.466;11.086;2024-03-25T05:56:58;9.03;;;7.30;;
1414;SDS011;702;49.466;11.086;2024-03-25T05:59:25;8.13;;;7.20;;
1414;SDS011;702;49.466;11.086;2024-03-25T06:01:51;9.90;;;7.10;;
1414;SDS011;702;49.466;11.086;2024-03-25T06:04:17;8.83;;;7.63;;
1414;SDS011;702;49.466;11.086;2024-03-25T06:06:45;10.43;;;7.60;;
1414;SDS011;702;49.466;11.086;2024-03-25T06:09:13;9.00;;;7.17;;
1414;SDS011;702;49.466;11.086;2024-03-25T06:11:39;7.40;;;6.57;;
1414;SDS011;702;49.466;11.086;2024-03-25T06:14:06;10.30;;;7.17;;
1414;SDS011;702;49.466;11.086;2024-03-25T06:16:33;9.43;;;7.77;;
1414;SDS011;702;49.466;11.086;2024-03-25T06:18:59;10.03;;;7.53;;
1414;SDS011;702;49.466;11.086;2024-03-25T06:21:33;13.23;;;8.23;;
1414;SDS011;702;49.466;11.086;2024-03-25T06:24:00;10.83;;;7.40;;
1414;SDS011;702;49.466;11.086;2024-03-25T06:26:28;9.47;;;7.50;;
1414;SDS011;702;49.466;11.086;2024-03-25T06:28:54;10.70;;;8.27;;
1414;SDS011;702;49.466;11.086;2024-03-25T06:31:21;9.40;;;7.87;;
1414;SDS011;702;49.466;11.086;2024-03-25T06:34:06;11.67;;;7.53;;
1414;SDS011;702;49.466;11.086;2024-03-25T06:36:43;9.13;;;7.23;;
1414;SDS011;702;49.466;11.086;2024-03-25T06:39:09;8.13;;;6.90;;
1414;SDS011;702;49.466;11.086;2024-03-25T06:41:38;10.53;;;7.40;;
1414;SDS011;702;49.466;11.086;2024-03-25T06:44:04;9.80;;;7.20;;
1414;SDS011;702;49.466;11.086;2024-03-25T06:46:30;11.47;;;7.50;;
1414;SDS011;702;49.466;11.086;2024-03-25T06:48:57;8.87;;;7.20;;
1414;SDS011;702;49.466;11.086;2024-03-25T06:51:24;7.53;;;5.67;;
1414;SDS011;702;49.466;11.086;2024-03-25T06:53:50;6.67;;;5.77;;
1414;SDS011;702;49.466;11.086;2024-03-25T06:56:17;7.73;;;5.30;;
1414;SDS011;702;49.466;11.086;2024-03-25T06:58:44;6.80;;;5.57;;
1414;SDS011;702;49.466;11.086;2024-03-25T07:01:11;8.73;;;5.37;;
1414;SDS011;702;49.466;11.086;2024-03-25T07:03:38;7.93;;;5.00;;
1414;SDS011;702;49.466;11.086;2024-03-25T07:06:04;6.13;;;4.90;;
1414;SDS011;702;49.466;11.086;2024-03-25T07:08:31;7.37;;;4.93;;
1414;SDS011;702;49.466;11.086;2024-03-25T07:10:57;5.70;;;4.60;;
1414;SDS011;702;49.466;11.086;2024-03-25T07:13:24;7.23;;;4.90;;
1414;SDS011;702;49.466;11.086;2024-03-25T07:15:52;6.60;;;4.87;;
1414;SDS011;702;49.466;11.086;2024-03-25T07:18:19;6.90;;;3.87;;
1414;SDS011;702;49.466;11.086;2024-03-25T07:20:45;5.80;;;4.10;;
1414;SDS011;702;49.466;11.086;2024-03-25T07:23:11;6.97;;;4.10;;
1414;SDS011;702;49.466;11.086;2024-03-25T07:25:38;5.10;;;3.93;;
1414;SDS011;702;49.466;11.086;2024-03-25T07:28:04;5.40;;;4.23;;
1414;SDS011;702;49.466;11.086;2024-03-25T07:30:31;3.97;;;3.00;;
1414;SDS011;702;49.466;11.086;2024-03-25T07:32:59;4.87;;;3.00;;
1414;SDS011;702;49.466;11.086;2024-03-25T07:35:25;3.40;;;2.90;;
1414;SDS011;702;49.466;11.086;2024-03-25T07:37:52;5.83;;;2.93;;
1414;SDS011;702;49.466;11.086;2024-03-25T07:40:18;5.50;;;3.03;;
1414;SDS011;702;49.466;11.086;2024-03-25T07:42:45;7.73;;;3.10;;
1414;SDS011;702;49.466;11.086;2024-03-25T07:45:11;4.83;;;2.50;;
1414;SDS011;702;49.466;11.086;2024-03-25T07:47:38;5.70;;;2.23;;
1414;SDS011;702;49.466;11.086;2024-03-25T07:50:06;2.87;;;2.50;;
1414;SDS011;702;49.466;11.086;2024-03-25T07:52:34;5.43;;;3.23;;
1414;SDS011;702;49.466;11.086;2024-03-25T07:55:00;4.30;;;2.77;;
1414;SDS011;702;49.466;11.086;2024-03-25T07:57:27;7.07;;;2.97;;
1414;SDS011;702;49.466;11.086;2024-03-25T07:59:53;4.53;;;3.40;;
1414;SDS011;702;49.466;11.086;2024-03-25T08:02:20;5.60;;;2.60;;
1414;SDS011;702;49.466;11.086;2024-03-25T08:04:46;6.00;;;2.47;;
1414;SDS011;702;49.466;11.086;2024-03-25T08:07:14;4.13;;;2.60;;
1414;SDS011;702;49.466;11.086;2024-03-25T08:09:41;4.10;;;2.40;;
1414;SDS011;702;49.466;11.086;2024-03-25T08:12:07;4.30;;;2.40;;
1414;SDS011;702;49.466;11.086;2024-03-25T08:14:34;5.73;;;2.40;;
1414;SDS011;702;49.466;11.086;2024-03-25T08:17:00;6.17;;;2.97;;
1414;SDS011;702;49.466;11.086;2024-03-25T08:19:27;7.57;;;2.50;;
1414;SDS011;702;49.466;11.086;2024-03-25T08:21:53;5.70;;;2.60;;
1414;SDS011;702;49.466;11.086;2024-03-25T08:24:21;6.00;;;2.77;;
1414;SDS011;702;49.466;11.086;2024-03-25T08:26:47;5.93;;;2.60;;
1414;SDS011;702;49.466;11.086;2024-03-25T08:29:13;4.20;;;2.30;;
1414;SDS011;702;49.466;11.086;2024-03-25T08:31:40;3.20;;;1.90;;
1414;SDS011;702;49.466;11.086;2024-03-25T08:34:06;2.43;;;1.80;;
1414;SDS011;702;49.466;11.086;2024-03-25T08:36:32;4.73;;;2.50;;
1414;SDS011;702;49.466;11.086;2024-03-25T08:38:58;3.63;;;2.27;;
1414;SDS011;702;49.466;11.086;2024-03-25T08:41:26;4.10;;;2.30;;
1414;SDS011;702;49.466;11.086;2024-03-25T08:43:53;4.10;;;2.27;;
1414;SDS011;702;49.466;11.086;2024-03-25T08:46:19;6.80;;;2.37;;
1414;SDS011;702;49.466;11.086;2024-03-25T08:48:45;3.60;;;2.33;;
1414;SDS011;702;49.466;11.086;2024-03-25T08:51:12;5.50;;;2.33;;
1414;SDS011;702;49.466;11.086;2024-03-25T08:53:38;3.50;;;2.40;;
1414;SDS011;702;49.466;11.086;2024-03-25T08:56:04;3.30;;;1.90;;
1414;SDS011;702;49.466;11.086;2024-03-25T08:58:32;4.50;;;2.03;;
1414;SDS011;702;49.466;11.086;2024-03-25T09:00:58;3.40;;;1.60;;
1414;SDS011;702;49.466;11.086;2024-03-25T09:03:24;5.07;;;1.80;;
1414;SDS011;702;49.466;11.086;2024-03-25T09:05:51;3.47;;;1.73;;
1414;SDS011;702;49.466;11.086;2024-03-25T09:08:18;3.23;;;1.73;;
1414;SDS011;702;49.466;11.086;2024-03-25T09:10:44;2.90;;;2.23;;
1414;SDS011;702;49.466;11.086;2024-03-25T09:13:31;2.90;;;2.40;;
1414;SDS011;702;49.466;11.086;2024-03-25T09:15:58;4.27;;;2.90;;
1414;SDS011;702;49.466;11.086;2024-03-25T09:18:24;4.47;;;2.50;;
1414;SDS011;702;49.466;11.086;2024-03-25T09:20:51;4.33;;;2.80;;
1414;SDS011;702;49.466;11.086;2024-03-25T09:23:17;3.43;;;3.00;;
1414;SDS011;702;49.466;11.086;2024-03-25T09:25:50;3.50;;;2.53;;
1414;SDS011;702;49.466;11.086;2024-03-25T09:28:17;5.10;;;2.00;;
1414;SDS011;702;49.466;11.086;2024-03-25T09:30:45;3.83;;;2.10;;
1414;SDS011;702;49.466;11.086;2024-03-25T09:33:13;5.53;;;2.10;;
1414;SDS011;702;49.466;11.086;2024-03-25T09:35:39;3.70;;;2.10;;
1414;SDS011;702;49.466;11.086;2024-03-25T09:38:05;4.50;;;2.63;;
1414;SDS011;702;49.466;11.086;2024-03-25T09:40:32;4.70;;;2.90;;
1414;SDS011;702;49.466;11.086;2024-03-25T09:43:02;3.50;;;2.80;;
1414;SDS011;702;49.466;11.086;2024-03-25T09:45:29;5.60;;;3.50;;
1414;SDS011;702;49.466;11.086;2024-03-25T09:47:57;3.60;;;3.20;;
1414;SDS011;702;49.466;11.086;2024-03-25T09:50:23;4.00;;;2.60;;
1414;SDS011;702;49.466;11.086;2024-03-25T09:52:50;4.13;;;3.13;;
1414;SDS011;702;49.466;11.086;2024-03-25T09:55:17;2.80;;;2.23;;
1414;SDS011;702;49.466;11.086;2024-03-25T09:57:44;6.93;;;3.07;;
1414;SDS011;702;49.466;11.086;2024-03-25T10:00:11;3.77;;;2.60;;
1414;SDS011;702;49.466;11.086;2024-03-25T10:02:39;2.47;;;2.03;;
1414;SDS011;702;49.466;11.086;2024-03-25T10:05:09;2.83;;;2.10;;
1414;SDS011;702;49.466;11.086;2024-03-25T10:07:36;2.73;;;2.37;;
1414;SDS011;702;49.466;11.086;2024-03-25T10:10:06;6.83;;;3.07;;
1414;SDS011;702;49.466;11.086;2024-03-25T10:12:35;4.33;;;2.60;;
1414;SDS011;702;49.466;11.086;2024-03-25T10:15:02;5.27;;;2.70;;
1414;SDS011;702;49.466;11.086;2024-03-25T10:17:30;4.43;;;2.80;;
1414;SDS011;702;49.466;11.086;2024-03-25T10:19:56;6.33;;;3.20;;
1414;SDS011;702;49.466;11.086;2024-03-25T10:22:24;3.20;;;2.90;;
1414;SDS011;702;49.466;11.086;2024-03-25T10:24:51;4.20;;;2.70;;
1414;SDS011;702;49.466;11.086;2024-03-25T10:27:17;4.90;;;2.40;;
1414;SDS011;702;49.466;11.086;2024-03-25T10:29:45;10.53;;;3.73;;
1414;SDS011;702;49.466;11.086;2024-03-25T10:32:12;4.20;;;2.90;;
1414;SDS011;702;49.466;11.086;2024-03-25T10:34:39;4.97;;;3.30;;
1414;SDS011;702;49.466;11.086;2024-03-25T10:37:07;6.67;;;4.30;;
1414;SDS011;702;49.466;11.086;2024-03-25T10:39:38;5.23;;;4.00;;
1414;SDS011;702;49.466;11.086;2024-03-25T10:42:09;8.23;;;4.27;;
1414;SDS011;702;49.466;11.086;2024-03-25T10:44:39;5.37;;;3.10;;
1414;SDS011;702;49.466;11.086;2024-03-25T10:47:06;3.93;;;3.37;;
1414;SDS011;702;49.466;11.086;2024-03-25T10:49:34;5.70;;;3.27;;
1414;SDS011;702;49.466;11.086;2024-03-25T10:52:09;3.83;;;2.70;;
1414;SDS011;702;49.466;11.086;2024-03-25T10:54:39;2.30;;;2.10;;
1414;SDS011;702;49.466;11.086;2024-03-25T10:57:06;2.20;;;2.00;;
1414;SDS011;702;49.466;11.086;2024-03-25T10:59:35;3.23;;;2.00;;
1414;SDS011;702;49.466;11.086;2024-03-25T11:02:03;3.53;;;2.23;;
1414;SDS011;702;49.466;11.086;2024-03-25T11:04:30;3.40;;;3.10;;
1414;SDS011;702;49.466;11.086;2024-03-25T11:07:06;2.47;;;2.20;;
1414;SDS011;702;49.466;11.086;2024-03-25T11:09:33;2.00;;;1.70;;
1414;SDS011;702;49.466;11.086;2024-03-25T11:12:01;3.30;;;2.23;;
1414;SDS011;702;49.466;11.086;2024-03-25T11:14:27;3.07;;;2.73;;
1414;SDS011;702;49.466;11.086;2024-03-25T11:16:54;3.23;;;2.70;;
1414;SDS011;702;49.466;11.086;2024-03-25T11:19:24;2.90;;;1.90;;
1414;SDS011;702;49.466;11.086;2024-03-25T11:21:52;3.50;;;2.30;;
1414;SDS011;702;49.466;11.086;2024-03-25T11:24:26;4.37;;;2.80;;
1414;SDS011;702;49.466;11.086;2024-03-25T11:26:53;3.97;;;2.87;;
1414;SDS011;702;49.466;11.086;2024-03-25T11:29:22;6.70;;;3.23;;
1414;SDS011;702;49.466;11.086;2024-03-25T11:31:48;3.07;;;2.70;;
1414;SDS011;702;49.466;11.086;2024-03-25T11:34:16;3.93;;;2.60;;
1414;SDS011;702;49.466;11.086;2024-03-25T11:36:42;4.13;;;2.50;;
1414;SDS011;702;49.466;11.086;2024-03-25T11:39:09;3.33;;;3.03;;
1414;SDS011;702;49.466;11.086;2024-03-25T11:41:38;5.23;;;2.97;;
1414;SDS011;702;49.466;11.086;2024-03-25T11:44:05;2.93;;;2.73;;
1414;SDS011;702;49.466;11.086;2024-03-25T11:46:35;5.20;;;2.87;;
1414;SDS011;702;49.466;11.086;2024-03-25T11:49:02;3.13;;;2.53;;
1414;SDS011;702;49.466;11.086;2024-03-25T11:51:31;3.07;;;2.77;;
1414;SDS011;702;49.466;11.086;2024-03-25T11:53:58;2.77;;;2.57;;
1414;SDS011;702;49.466;11.086;2024-03-25T11:56:25;4.70;;;2.63;;
1414;SDS011;702;49.466;11.086;2024-03-25T11:58:51;4.13;;;2.90;;
1414;SDS011;702;49.466;11.086;2024-03-25T12:01:18;4.63;;;2.40;;
1414;SDS011;702;49.466;11.086;2024-03-25T12:03:46;4.50;;;2.47;;
1414;SDS011;702;49.466;11.086;2024-03-25T12:06:12;3.70;;;2.50;;
1414;SDS011;702;49.466;11.086;2024-03-25T12:08:38;2.97;;;2.17;;
1414;SDS011;702;49.466;11.086;2024-03-25T12:11:05;3.03;;;2.47;;
1414;SDS011;702;49.466;11.086;2024-03-25T12:13:44;2.90;;;2.20;;
1414;SDS011;702;49.466;11.086;2024-03-25T12:16:10;4.73;;;1.93;;
1414;SDS011;702;49.466;11.086;2024-03-25T12:18:39;2.33;;;1.67;;
1414;SDS011;702;49.466;11.086;2024-03-25T12:21:08;3.50;;;1.80;;
1414;SDS011;702;49.466;11.086;2024-03-25T12:23:36;2.13;;;1.93;;
1414;SDS011;702;49.466;11.086;2024-03-25T12:26:03;2.30;;;2.10;;
1414;SDS011;702;49.466;11.086;2024-03-25T12:28:30;1.90;;;1.80;;
1414;SDS011;702;49.466;11.086;2024-03-25T12:30:57;2.30;;;2.10;;
1414;SDS011;702;49.466;11.086;2024-03-25T12:33:23;4.70;;;2.33;;
1414;SDS011;702;49.466;11.086;2024-03-25T12:35:50;2.20;;;2.00;;
1414;SDS011;702;49.466;11.086;2024-03-25T12:38:22;3.10;;;2.60;;
1414;SDS011;702;49.466;11.086;2024-03-25T12:40:50;2.77;;;2.33;;
1414;SDS011;702;49.466;11.086;2024-03-25T12:43:17;3.00;;;2.17;;
1414;SDS011;702;49.466;11.086;2024-03-25T12:45:43;4.10;;;2.27;;
1414;SDS011;702;49.466;11.086;2024-03-25T12:48:10;2.30;;;2.10;;
1414;SDS011;702;49.466;11.086;2024-03-25T12:50:37;4.47;;;2.73;;
1414;SDS011;702;49.466;11.086;2024-03-25T12:53:04;2.47;;;2.00;;
1414;SDS011;702;49.466;11.086;2024-03-25T12:55:31;1.93;;;1.73;;
1414;SDS011;702;49.466;11.086;2024-03-25T12:57:58;4.50;;;2.00;;
1414;SDS011;702;49.466;11.086;2024-03-25T13:00:24;5.60;;;2.10;;
1414;SDS011;702;49.466;11.086;2024-03-25T13:02:51;2.37;;;2.17;;
1414;SDS011;702;49.466;11.086;2024-03-25T13:05:17;3.20;;;1.93;;
1414;SDS011;702;49.466;11.086;2024-03-25T13:07:43;4.27;;;2.57;;
1414;SDS011;702;49.466;11.086;2024-03-25T13:10:10;3.47;;;2.23;;
1414;SDS011;702;49.466;11.086;2024-03-25T13:12:37;2.20;;;2.00;;
1414;SDS011;702;49.466;11.086;2024-03-25T13:15:04;2.50;;;2.30;;
1414;SDS011;702;49.466;11.086;2024-03-25T13:17:32;5.10;;;2.20;;
1414;SDS011;702;49.466;11.086;2024-03-25T13:19:58;2.57;;;2.17;;
1414;SDS011;702;49.466;11.086;2024-03-25T13:22:25;2.33;;;2.13;;
1414;SDS011;702;49.466;11.086;2024-03-25T13:24:51;3.00;;;2.37;;
1414;SDS011;702;49.466;11.086;2024-03-25T13:27:17;3.43;;;2.80;;
1414;SDS011;702;49.466;11.086;2024-03-25T13:29:45;3.30;;;2.20;;
1414;SDS011;702;49.466;11.086;2024-03-25T13:32:12;3.33;;;2.27;;
1414;SDS011;702;49.466;11.086;2024-03-25T13:34:38;3.00;;;2.70;;
1414;SDS011;702;49.466;11.086;2024-03-25T13:37:05;2.30;;;2.10;;
1414;SDS011;702;49.466;11.086;2024-03-25T13:39:31;2.60;;;2.40;;
1414;SDS011;702;49.466;11.086;2024-03-25T13:41:58;3.60;;;2.70;;
1414;SDS011;702;49.466;11.086;2024-03-25T13:44:24;4.00;;;3.20;;
1414;SDS011;702;49.466;11.086;2024-03-25T13:46:51;7.53;;;3.70;;
1414;SDS011;702;49.466;11.086;2024-03-25T13:49:18;3.47;;;2.70;;
1414;SDS011;702;49.466;11.086;2024-03-25T13:51:44;2.67;;;2.47;;
1414;SDS011;702;49.466;11.086;2024-03-25T13:54:10;3.70;;;2.43;;
1414;SDS011;702;49.466;11.086;2024-03-25T13:56:37;3.33;;;2.23;;
1414;SDS011;702;49.466;11.086;2024-03-25T13:59:03;2.70;;;2.50;;
1414;SDS011;702;49.466;11.086;2024-03-25T14:01:29;2.53;;;2.33;;
1414;SDS011;702;49.466;11.086;2024-03-25T14:03:57;2.30;;;2.10;;
1414;SDS011;702;49.466;11.086;2024-03-25T14:06:24;3.33;;;2.33;;
1414;SDS011;702;49.466;11.086;2024-03-25T14:08:51;3.77;;;2.63;;
1414;SDS011;702;49.466;11.086;2024-03-25T14:11:17;2.93;;;2.37;;
1414;SDS011;702;49.466;11.086;2024-03-25T14:13:44;3.60;;;3.13;;
1414;SDS011;702;49.466;11.086;2024-03-25T14:16:11;2.50;;;2.30;;
1414;SDS011;702;49.466;11.086;2024-03-25T14:18:38;3.00;;;2.63;;
1414;SDS011;702;49.466;11.086;2024-03-25T14:21:06;2.27;;;2.17;;
1414;SDS011;702;49.466;11.086;2024-03-25T14:23:32;5.47;;;2.10;;
1414;SDS011;702;49.466;11.086;2024-03-25T14:25:59;2.40;;;2.20;;
1414;SDS011;702;49.466;11.086;2024-03-25T14:28:25;3.53;;;2.20;;
1414;SDS011;702;49.466;11.086;2024-03-25T14:30:52;3.50;;;2.80;;
1414;SDS011;702;49.466;11.086;2024-03-25T14:33:19;3.33;;;2.30;;
1414;SDS011;702;49.466;11.086;2024-03-25T14:35:45;3.07;;;2.37;;
1414;SDS011;702;49.466;11.086;2024-03-25T14:38:13;2.87;;;2.23;;
1414;SDS011;702;49.466;11.086;2024-03-25T14:40:39;3.60;;;2.47;;
1414;SDS011;702;49.466;11.086;2024-03-25T14:43:07;2.00;;;1.80;;
1414;SDS011;702;49.466;11.086;2024-03-25T14:45:33;2.60;;;2.40;;
1414;SDS011;702;49.466;11.086;2024-03-25T14:47:59;1.90;;;1.80;;
1414;SDS011;702;49.466;11.086;2024-03-25T14:50:26;2.40;;;2.20;;
1414;SDS011;702;49.466;11.086;2024-03-25T14:52:52;2.50;;;2.30;;
1414;SDS011;702;49.466;11.086;2024-03-25T14:55:20;2.73;;;2.40;;
1414;SDS011;702;49.466;11.086;2024-03-25T14:57:46;3.27;;;2.30;;
1414;SDS011;702;49.466;11.086;2024-03-25T15:00:13;2.53;;;2.27;;
1414;SDS011;702;49.466;11.086;2024-03-25T15:02:40;3.40;;;3.00;;
1414;SDS011;702;49.466;11.086;2024-03-25T15:05:07;2.80;;;2.37;;
1414;SDS011;702;49.466;11.086;2024-03-25T15:07:33;5.00;;;2.70;;
1414;SDS011;702;49.466;11.086;2024-03-25T15:09:59;3.03;;;2.80;;
1414;SDS011;702;49.466;11.086;2024-03-25T15:12:27;2.93;;;2.50;;
1414;SDS011;702;49.466;11.086;2024-03-25T15:14:54;3.00;;;2.17;;